Time,TemperatureF,DewpointF,PressureIn,WindDirection,WindDirectionDegrees,WindSpeedMPH,WindSpeedGustMPH,Humidity,HourlyPrecipIn,Conditions,Clouds,dailyrainin,SoftwareType,DateUTC
2014-01-29 00:00:00,25.7,5.3,30.42,NW,325,0.0,8.0,41,0.00,,SKC,0.00,VWS V15.00,2014-01-29 06:00:00,
2014-01-29 00:02:00,27.4,5.7,30.42,North,2,6.0,10.0,39,0.00,,SKC,0.00,VWS V15.00,2014-01-29 06:02:00,
2014-01-29 00:07:00,27.3,5.6,30.42,NNE,19,8.0,8.0,39,0.00,,SKC,0.00,VWS V15.00,2014-01-29 06:07:00,
2014-01-29 00:12:00,27.2,5.5,30.42,NNE,23,7.0,9.0,39,0.00,,SKC,0.00,VWS V15.00,2014-01-29 06:12:00,
2014-01-29 00:17:00,27.0,5.3,30.41,NNE,22,7.0,11.0,39,0.00,,SKC,0.00,VWS V15.00,2014-01-29 06:17:00,
2014-01-29 00:22:00,26.7,5.6,30.41,NW,316,6.0,11.0,40,0.00,,SKC,0.00,VWS V15.00,2014-01-29 06:22:00,
2014-01-29 00:27:00,26.5,5.5,30.41,North,360,6.0,11.0,40,0.00,,SKC,0.00,VWS V15.00,2014-01-29 06:27:00,
2014-01-29 00:30:00,26.3,5.8,30.41,NW,323,3.0,11.0,41,0.00,,SKC,0.00,VWS V15.00,2014-01-29 06:30:00,
2014-01-29 00:32:00,26.3,5.8,30.41,NNW,328,5.0,11.0,41,0.00,,SKC,0.00,VWS V15.00,2014-01-29 06:32:00,
2014-01-29 00:37:00,26.2,5.7,30.41,North,6,6.0,7.0,41,0.00,,SKC,0.00,VWS V15.00,2014-01-29 06:37:00,
2014-01-29 00:42:00,26.1,5.6,30.41,NNW,333,4.0,8.0,41,0.00,,SKC,0.00,VWS V15.00,2014-01-29 06:42:00,
2014-01-29 00:47:00,25.9,5.4,30.41,North,3,4.0,8.0,41,0.00,,SKC,0.00,VWS V15.00,2014-01-29 06:47:00,
2014-01-29 00:52:00,25.9,5.4,30.41,NW,307,1.0,8.0,41,0.00,,SKC,0.00,VWS V15.00,2014-01-29 06:52:00,
2014-01-29 00:57:00,25.8,5.4,30.41,NNW,338,1.0,8.0,41,0.00,,SKC,0.00,VWS V15.00,2014-01-29 06:57:00,
2014-01-29 01:00:00,25.7,5.3,30.42,NW,325,0.0,8.0,41,0.00,,SKC,0.00,VWS V15.00,2014-01-29 07:00:00,
2014-01-29 01:02:00,25.7,5.3,30.42,NW,316,1.0,8.0,41,0.00,,SKC,0.00,VWS V15.00,2014-01-29 07:02:00,
2014-01-29 01:07:00,25.8,5.4,30.42,North,356,1.0,4.0,41,0.00,,SKC,0.00,VWS V15.00,2014-01-29 07:07:00,
2014-01-29 01:12:00,25.8,5.4,30.42,NNW,339,1.0,4.0,41,0.00,,SKC,0.00,VWS V15.00,2014-01-29 07:12:00,
2014-01-29 01:17:00,25.9,4.9,30.42,NW,315,1.0,4.0,40,0.00,,SKC,0.00,VWS V15.00,2014-01-29 07:17:00,
2014-01-29 01:22:00,25.8,4.8,30.42,NW,314,0.0,4.0,40,0.00,,SKC,0.00,VWS V15.00,2014-01-29 07:22:00,
2014-01-29 01:27:00,25.8,4.8,30.42,WNW,299,0.0,4.0,40,0.00,,SKC,0.00,VWS V15.00,2014-01-29 07:27:00,
2014-01-29 01:30:00,25.8,4.8,30.41,WNW,289,0.0,4.0,40,0.00,,SKC,0.00,VWS V15.00,2014-01-29 07:30:00,
2014-01-29 01:32:00,25.8,4.8,30.42,WNW,289,0.0,4.0,40,0.00,,SKC,0.00,VWS V15.00,2014-01-29 07:32:00,
2014-01-29 01:37:00,25.8,4.8,30.41,WNW,291,0.0,1.0,40,0.00,,SKC,0.00,VWS V15.00,2014-01-29 07:37:00,
2014-01-29 01:42:00,25.9,4.9,30.41,NW,304,0.0,1.0,40,0.00,,SKC,0.00,VWS V15.00,2014-01-29 07:42:00,
2014-01-29 01:47:00,25.9,4.9,30.42,NW,320,0.0,1.0,40,0.00,,SKC,0.00,VWS V15.00,2014-01-29 07:47:00,
2014-01-29 01:52:00,25.8,4.8,30.42,WNW,302,0.0,1.0,40,0.00,,SKC,0.00,VWS V15.00,2014-01-29 07:52:00,
2014-01-29 01:57:00,25.7,5.3,30.41,NW,304,0.0,1.0,41,0.00,,SKC,0.00,VWS V15.00,2014-01-29 07:57:00,
2014-01-29 02:00:00,25.5,5.1,30.41,NW,308,0.0,1.0,41,0.00,,SKC,0.00,VWS V15.00,2014-01-29 08:00:00,
2014-01-29 02:02:00,25.6,5.2,30.41,WNW,283,0.0,1.0,41,0.00,,SKC,0.00,VWS V15.00,2014-01-29 08:02:00,
2014-01-29 02:07:00,25.5,5.1,30.41,NW,316,0.0,1.0,41,0.00,,SKC,0.00,VWS V15.00,2014-01-29 08:07:00,
2014-01-29 02:12:00,25.5,5.6,30.42,NW,315,0.0,1.0,42,0.00,,SKC,0.00,VWS V15.00,2014-01-29 08:12:00,
2014-01-29 02:17:00,25.4,5.5,30.41,NW,315,0.0,1.0,42,0.00,,SKC,0.00,VWS V15.00,2014-01-29 08:17:00,
2014-01-29 02:22:00,25.1,5.2,30.41,NW,315,0.0,1.0,42,0.00,,SKC,0.00,VWS V15.00,2014-01-29 08:22:00,
2014-01-29 02:27:00,24.8,4.4,30.41,NW,315,0.0,1.0,41,0.00,,SKC,0.00,VWS V15.00,2014-01-29 08:27:00,
2014-01-29 02:30:00,24.8,4.4,30.41,NW,315,0.0,1.0,41,0.00,,SKC,0.00,VWS V15.00,2014-01-29 08:30:00,
2014-01-29 02:35:00,25.0,5.2,30.41,NW,315,0.0,0.0,42,0.00,,SKC,0.00,VWS V15.00,2014-01-29 08:35:00,
2014-01-29 02:40:00,25.0,4.6,30.41,NW,315,0.0,0.0,41,0.00,,SKC,0.00,VWS V15.00,2014-01-29 08:40:00,
2014-01-29 02:45:00,25.0,5.2,30.41,NW,315,0.0,0.0,42,0.00,,SKC,0.00,VWS V15.00,2014-01-29 08:45:00,
2014-01-29 02:50:00,24.8,5.0,30.40,NW,315,0.0,0.0,42,0.00,,SKC,0.00,VWS V15.00,2014-01-29 08:50:00,
2014-01-29 02:55:00,24.7,4.9,30.40,NW,315,0.0,0.0,42,0.00,,SKC,0.00,VWS V15.00,2014-01-29 08:55:00,
2014-01-29 03:00:00,24.6,4.8,30.40,NW,315,0.0,0.0,42,0.00,,SKC,0.00,VWS V15.00,2014-01-29 09:00:00,
2014-01-29 03:05:00,24.3,5.0,30.40,NW,315,0.0,0.0,43,0.00,,SKC,0.00,VWS V15.00,2014-01-29 09:05:00,
2014-01-29 03:10:00,24.3,5.5,30.40,NW,315,0.0,0.0,44,0.00,,SKC,0.00,VWS V15.00,2014-01-29 09:10:00,
2014-01-29 03:15:00,24.1,5.3,30.40,NW,315,0.0,0.0,44,0.00,,SKC,0.00,VWS V15.00,2014-01-29 09:15:00,
2014-01-29 03:20:00,23.8,5.6,30.40,NW,315,0.0,0.0,45,0.00,,SKC,0.00,VWS V15.00,2014-01-29 09:20:00,
2014-01-29 03:25:00,23.8,5.6,30.40,NW,315,0.0,0.0,45,0.00,,SKC,0.00,VWS V15.00,2014-01-29 09:25:00,
2014-01-29 03:30:00,23.9,5.7,30.40,NW,315,0.0,0.0,45,0.00,,SKC,0.00,VWS V15.00,2014-01-29 09:30:00,
2014-01-29 03:35:00,23.9,5.7,30.40,NNW,333,0.0,0.0,45,0.00,,SKC,0.00,VWS V15.00,2014-01-29 09:35:00,
2014-01-29 03:40:00,23.4,6.2,30.40,NNW,337,0.0,1.0,47,0.00,,SKC,0.00,VWS V15.00,2014-01-29 09:40:00,
2014-01-29 03:45:00,22.9,6.6,30.40,WNW,287,0.0,1.0,49,0.00,,SKC,0.00,VWS V15.00,2014-01-29 09:45:00,
2014-01-29 03:50:00,22.7,6.9,30.40,WNW,296,0.0,1.0,50,0.00,,SKC,0.00,VWS V15.00,2014-01-29 09:50:00,
2014-01-29 03:55:00,22.5,7.1,30.39,WNW,302,0.0,1.0,51,0.00,,SKC,0.00,VWS V15.00,2014-01-29 09:55:00,
2014-01-29 04:00:00,22.3,6.9,30.39,WNW,302,0.0,1.0,51,0.00,,SKC,0.00,VWS V15.00,2014-01-29 10:00:00,
2014-01-29 04:05:00,22.5,7.1,30.39,WNW,302,0.0,0.0,51,0.00,,SKC,0.00,VWS V15.00,2014-01-29 10:05:00,
2014-01-29 04:10:00,22.6,7.2,30.39,WNW,302,0.0,0.0,51,0.00,,SKC,0.00,VWS V15.00,2014-01-29 10:10:00,
2014-01-29 04:15:00,22.9,7.1,30.39,NW,305,0.0,1.0,50,0.00,,SKC,0.00,VWS V15.00,2014-01-29 10:15:00,
2014-01-29 04:20:00,23.0,7.6,30.39,NNW,333,0.0,1.0,51,0.00,,SKC,0.00,VWS V15.00,2014-01-29 10:20:00,
2014-01-29 04:25:00,22.9,7.9,30.39,ESE,119,1.0,3.0,52,0.00,,SKC,0.00,VWS V15.00,2014-01-29 10:25:00,
2014-01-29 04:30:00,22.3,8.2,30.39,SE,125,0.0,3.0,54,0.00,,SKC,0.00,VWS V15.00,2014-01-29 10:30:00,
2014-01-29 04:35:00,22.0,7.9,30.40,SE,136,1.0,2.0,54,0.00,,SKC,0.00,VWS V15.00,2014-01-29 10:35:00,
2014-01-29 04:40:00,22.1,8.4,30.40,SSE,148,0.0,2.0,55,0.00,,SKC,0.00,VWS V15.00,2014-01-29 10:40:00,
2014-01-29 04:45:00,22.1,8.4,30.39,SSE,148,0.0,2.0,55,0.00,,SKC,0.00,VWS V15.00,2014-01-29 10:45:00,
2014-01-29 04:50:00,22.2,8.1,30.39,SSE,148,0.0,2.0,54,0.00,,SKC,0.00,VWS V15.00,2014-01-29 10:50:00,
2014-01-29 04:55:00,22.3,7.8,30.39,SSE,160,0.0,2.0,53,0.00,,SKC,0.00,VWS V15.00,2014-01-29 10:55:00,
2014-01-29 05:00:00,22.3,7.8,30.39,SSE,160,0.0,2.0,53,0.00,,SKC,0.00,VWS V15.00,2014-01-29 11:00:00,
2014-01-29 05:05:00,22.3,7.8,30.38,SSE,160,0.0,0.0,53,0.00,,SKC,0.00,VWS V15.00,2014-01-29 11:05:00,
2014-01-29 05:10:00,22.0,7.5,30.38,SSE,160,0.0,0.0,53,0.00,,SKC,0.00,VWS V15.00,2014-01-29 11:10:00,
2014-01-29 05:15:00,21.9,8.2,30.38,SSE,160,0.0,0.0,55,0.00,,SKC,0.00,VWS V15.00,2014-01-29 11:15:00,
2014-01-29 05:20:00,21.6,8.3,30.38,SSE,160,0.0,0.0,56,0.00,,SKC,0.00,VWS V15.00,2014-01-29 11:20:00,
2014-01-29 05:25:00,21.6,7.9,30.38,SSE,160,0.0,0.0,55,0.00,,SKC,0.00,VWS V15.00,2014-01-29 11:25:00,
2014-01-29 05:30:00,21.7,8.0,30.38,SSE,160,1.0,1.0,55,0.00,,SKC,0.00,VWS V15.00,2014-01-29 11:30:00,
2014-01-29 05:35:00,21.4,8.6,30.38,North,349,1.0,1.0,57,0.00,,SKC,0.00,VWS V15.00,2014-01-29 11:35:00,
2014-01-29 05:40:00,21.3,8.4,30.38,North,349,1.0,1.0,57,0.00,,SKC,0.00,VWS V15.00,2014-01-29 11:40:00,
2014-01-29 05:45:00,21.5,8.2,30.39,North,349,0.0,1.0,56,0.00,,SKC,0.00,VWS V15.00,2014-01-29 11:45:00,
2014-01-29 05:50:00,21.5,8.6,30.39,NW,326,0.0,1.0,57,0.00,,SKC,0.00,VWS V15.00,2014-01-29 11:50:00,
2014-01-29 05:55:00,21.5,9.0,30.39,NW,326,0.0,1.0,58,0.00,,SKC,0.00,VWS V15.00,2014-01-29 11:55:00,
2014-01-29 06:00:00,21.5,9.4,30.40,NW,326,0.0,1.0,59,0.00,,SKC,0.00,VWS V15.00,2014-01-29 12:00:00,
2014-01-29 06:05:00,21.5,9.0,30.40,NNW,346,1.0,1.0,58,0.00,,SKC,0.00,VWS V15.00,2014-01-29 12:05:00,
2014-01-29 06:10:00,21.5,9.0,30.40,North,356,0.0,1.0,58,0.00,,SKC,0.00,VWS V15.00,2014-01-29 12:10:00,
2014-01-29 06:15:00,21.5,9.0,30.40,North,358,1.0,1.0,58,0.00,,SKC,0.00,VWS V15.00,2014-01-29 12:15:00,
2014-01-29 06:20:00,21.3,10.0,30.40,North,358,0.0,1.0,61,0.00,,SKC,0.00,VWS V15.00,2014-01-29 12:20:00,
2014-01-29 06:25:00,21.1,9.4,30.40,North,358,0.0,1.0,60,0.00,,SKC,0.00,VWS V15.00,2014-01-29 12:25:00,
2014-01-29 06:30:00,21.1,9.4,30.40,NNW,345,0.0,1.0,60,0.00,,SKC,0.00,VWS V15.00,2014-01-29 12:30:00,
2014-01-29 06:35:00,21.0,9.3,30.40,NNW,345,0.0,1.0,60,0.00,,SKC,0.00,VWS V15.00,2014-01-29 12:35:00,
2014-01-29 06:40:00,20.8,9.9,30.40,NNW,348,1.0,2.0,62,0.00,,SKC,0.00,VWS V15.00,2014-01-29 12:40:00,
2014-01-29 06:45:00,20.5,9.9,30.40,NW,326,1.0,2.0,63,0.00,,SKC,0.00,VWS V15.00,2014-01-29 12:45:00,
2014-01-29 06:50:00,20.5,9.9,30.41,NW,321,1.0,2.0,63,0.00,,SKC,0.00,VWS V15.00,2014-01-29 12:50:00,
2014-01-29 06:55:00,20.6,10.0,30.41,NW,318,0.0,2.0,63,0.00,,SKC,0.00,VWS V15.00,2014-01-29 12:55:00,
2014-01-29 07:00:00,20.6,10.0,30.41,NW,318,0.0,2.0,63,0.00,,SKC,0.00,VWS V15.00,2014-01-29 13:00:00,
2014-01-29 07:05:00,20.9,9.9,30.41,NW,318,0.0,0.0,62,0.00,,SKC,0.00,VWS V15.00,2014-01-29 13:05:00,
2014-01-29 07:10:00,21.2,9.9,30.42,NW,318,0.0,0.0,61,0.00,,SKC,0.00,VWS V15.00,2014-01-29 13:10:00,
2014-01-29 07:15:00,21.3,9.6,30.42,NW,318,0.0,0.0,60,0.00,,SKC,0.00,VWS V15.00,2014-01-29 13:15:00,
2014-01-29 07:20:00,21.5,9.4,30.42,NW,319,0.0,0.0,59,0.00,,SKC,0.00,VWS V15.00,2014-01-29 13:20:00,
2014-01-29 07:25:00,21.6,9.5,30.43,NW,319,0.0,0.0,59,0.00,,SKC,0.00,VWS V15.00,2014-01-29 13:25:00,
2014-01-29 07:30:00,21.5,9.4,30.43,NNW,341,1.0,1.0,59,0.00,,SKC,0.00,VWS V15.00,2014-01-29 13:30:00,
2014-01-29 07:35:00,21.1,9.8,30.43,NNW,341,0.0,0.0,61,0.00,,SKC,0.00,VWS V15.00,2014-01-29 13:35:00,
2014-01-29 07:40:00,20.9,9.9,30.43,NNW,341,0.0,0.0,62,0.00,,SKC,0.00,VWS V15.00,2014-01-29 13:40:00,
2014-01-29 07:45:00,20.8,10.2,30.43,NNW,341,0.0,1.0,63,0.00,,SKC,0.00,VWS V15.00,2014-01-29 13:45:00,
2014-01-29 07:50:00,20.7,10.5,30.42,NNW,341,0.0,1.0,64,0.00,,SKC,0.00,VWS V15.00,2014-01-29 13:50:00,
2014-01-29 07:55:00,20.6,10.4,30.42,North,354,2.0,2.0,64,0.00,,SKC,0.00,VWS V15.00,2014-01-29 13:55:00,
2014-01-29 08:00:00,20.7,10.5,30.42,NNW,348,1.0,2.0,64,0.00,,SKC,0.00,VWS V15.00,2014-01-29 14:00:00,
2014-01-29 08:05:00,20.7,10.5,30.41,North,359,0.0,1.0,64,0.00,,SKC,0.00,VWS V15.00,2014-01-29 14:05:00,
2014-01-29 08:10:00,21.0,10.4,30.41,North,359,1.0,1.0,63,0.00,,SKC,0.00,VWS V15.00,2014-01-29 14:10:00,
2014-01-29 08:15:00,21.3,10.0,30.41,North,358,1.0,2.0,61,0.00,,SKC,0.00,VWS V15.00,2014-01-29 14:15:00,
2014-01-29 08:20:00,21.9,10.2,30.41,North,1,0.0,2.0,60,0.00,,SKC,0.00,VWS V15.00,2014-01-29 14:20:00,
2014-01-29 08:25:00,22.3,9.8,30.41,North,354,1.0,2.0,58,0.00,,SKC,0.00,VWS V15.00,2014-01-29 14:25:00,
2014-01-29 08:30:00,22.7,9.4,30.41,NNE,13,1.0,2.0,56,0.00,,SKC,0.00,VWS V15.00,2014-01-29 14:30:00,
2014-01-29 08:35:00,23.3,9.5,30.41,North,350,0.0,1.0,55,0.00,,SKC,0.00,VWS V15.00,2014-01-29 14:35:00,
2014-01-29 08:40:00,23.9,9.7,30.41,North,355,0.0,1.0,54,0.00,,SKC,0.00,VWS V15.00,2014-01-29 14:40:00,
2014-01-29 08:45:00,24.6,9.9,30.41,North,355,0.0,1.0,53,0.00,,SKC,0.00,VWS V15.00,2014-01-29 14:45:00,
2014-01-29 08:50:00,25.4,10.2,30.41,NW,324,0.0,1.0,52,0.00,,SKC,0.00,VWS V15.00,2014-01-29 14:50:00,
2014-01-29 08:55:00,26.1,10.9,30.41,NW,323,0.0,1.0,52,0.00,,SKC,0.00,VWS V15.00,2014-01-29 14:55:00,
2014-01-29 09:00:00,26.7,11.9,30.41,North,3,0.0,1.0,53,0.00,,SKC,0.00,VWS V15.00,2014-01-29 15:00:00,
2014-01-29 09:05:00,27.5,13.1,30.41,NNW,330,0.0,0.0,54,0.00,,SKC,0.00,VWS V15.00,2014-01-29 15:05:00,
2014-01-29 09:10:00,28.3,13.4,30.41,NNW,330,0.0,0.0,53,0.00,,SKC,0.00,VWS V15.00,2014-01-29 15:10:00,
2014-01-29 09:15:00,29.4,12.6,30.41,SSE,157,2.0,2.0,49,0.00,,SKC,0.00,VWS V15.00,2014-01-29 15:15:00,
2014-01-29 09:20:00,30.7,11.4,30.41,SSE,153,0.0,2.0,44,0.00,,SKC,0.00,VWS V15.00,2014-01-29 15:20:00,
2014-01-29 09:25:00,31.1,11.2,30.41,SW,217,0.0,3.0,43,0.00,,SKC,0.00,VWS V15.00,2014-01-29 15:25:00,
2014-01-29 09:30:00,31.0,11.1,30.41,SW,223,0.0,3.0,43,0.00,,SKC,0.00,VWS V15.00,2014-01-29 15:30:00,
2014-01-29 09:35:00,31.8,11.9,30.42,SSE,160,0.0,2.0,43,0.00,,SKC,0.00,VWS V15.00,2014-01-29 15:35:00,
2014-01-29 09:40:00,32.6,12.1,30.41,SE,127,2.0,3.0,42,0.00,,SKC,0.00,VWS V15.00,2014-01-29 15:40:00,
2014-01-29 09:45:00,33.3,11.6,30.41,ESE,122,2.0,3.0,40,0.00,,SKC,0.00,VWS V15.00,2014-01-29 15:45:00,
2014-01-29 09:50:00,33.8,11.5,30.41,SE,130,2.0,3.0,39,0.00,,SKC,0.00,VWS V15.00,2014-01-29 15:50:00,
2014-01-29 09:55:00,34.1,11.8,30.42,SSE,167,0.0,4.0,39,0.00,,SKC,0.00,VWS V15.00,2014-01-29 15:55:00,
2014-01-29 10:00:00,34.9,12.5,30.42,SSE,159,4.0,4.0,39,0.00,,SKC,0.00,VWS V15.00,2014-01-29 16:00:00,
2014-01-29 10:05:00,34.9,11.3,30.42,SE,134,2.0,3.0,37,0.00,,SKC,0.00,VWS V15.00,2014-01-29 16:05:00,
2014-01-29 10:10:00,34.9,11.9,30.43,SW,221,3.0,4.0,38,0.00,,SKC,0.00,VWS V15.00,2014-01-29 16:10:00,
2014-01-29 10:15:00,35.2,13.3,30.43,SSW,197,2.0,5.0,40,0.00,,SKC,0.00,VWS V15.00,2014-01-29 16:15:00,
2014-01-29 10:20:00,35.5,13.0,30.43,SSW,205,4.0,5.0,39,0.00,,SKC,0.00,VWS V15.00,2014-01-29 16:20:00,
2014-01-29 10:25:00,35.4,12.3,30.43,SSE,157,4.0,6.0,38,0.00,,SKC,0.00,VWS V15.00,2014-01-29 16:25:00,
2014-01-29 10:30:00,35.5,11.8,30.43,WSW,247,3.0,6.0,37,0.00,,SKC,0.00,VWS V15.00,2014-01-29 16:30:00,
2014-01-29 10:35:00,35.4,12.3,30.43,SW,228,3.0,4.0,38,0.00,,SKC,0.00,VWS V15.00,2014-01-29 16:35:00,
2014-01-29 10:40:00,35.8,12.7,30.43,SE,136,2.0,5.0,38,0.00,,SKC,0.00,VWS V15.00,2014-01-29 16:40:00,
2014-01-29 10:45:00,36.0,12.9,30.43,SSE,157,4.0,6.0,38,0.00,,SKC,0.00,VWS V15.00,2014-01-29 16:45:00,
2014-01-29 10:50:00,36.6,12.8,30.43,SSW,195,4.0,6.0,37,0.00,,SKC,0.00,VWS V15.00,2014-01-29 16:50:00,
2014-01-29 10:55:00,36.5,12.7,30.43,South,191,2.0,6.0,37,0.00,,SKC,0.00,VWS V15.00,2014-01-29 16:55:00,
2014-01-29 11:00:00,36.9,13.7,30.43,South,185,1.0,7.0,38,0.00,,SKC,0.00,VWS V15.00,2014-01-29 17:00:00,
2014-01-29 11:05:00,37.1,13.2,30.43,WSW,251,4.0,5.0,37,0.00,,SKC,0.00,VWS V15.00,2014-01-29 17:05:00,
2014-01-29 11:10:00,36.8,13.0,30.43,SE,129,4.0,7.0,37,0.00,,SKC,0.00,VWS V15.00,2014-01-29 17:10:00,
2014-01-29 11:15:00,37.2,13.9,30.43,SSW,210,2.0,8.0,38,0.00,,SKC,0.00,VWS V15.00,2014-01-29 17:15:00,
2014-01-29 11:20:00,37.5,13.6,30.43,South,174,6.0,9.0,37,0.00,,SKC,0.00,VWS V15.00,2014-01-29 17:20:00,
2014-01-29 11:25:00,37.6,13.1,30.43,SSE,150,6.0,9.0,36,0.00,,SKC,0.00,VWS V15.00,2014-01-29 17:25:00,
2014-01-29 11:30:00,37.6,13.1,30.42,South,188,6.0,10.0,36,0.00,,SKC,0.00,VWS V15.00,2014-01-29 17:30:00,
2014-01-29 11:35:00,37.8,13.3,30.42,South,174,4.0,7.0,36,0.00,,SKC,0.00,VWS V15.00,2014-01-29 17:35:00,
2014-01-29 11:40:00,38.5,13.9,30.42,South,188,1.0,7.0,36,0.00,,SKC,0.00,VWS V15.00,2014-01-29 17:40:00,
2014-01-29 11:45:00,38.6,14.0,30.41,SSE,156,6.0,9.0,36,0.00,,SKC,0.00,VWS V15.00,2014-01-29 17:45:00,
2014-01-29 11:50:00,38.6,14.0,30.41,SE,129,6.0,10.0,36,0.00,,SKC,0.00,VWS V15.00,2014-01-29 17:50:00,
2014-01-29 11:55:00,38.8,13.5,30.40,SSE,167,5.0,10.0,35,0.00,,SKC,0.00,VWS V15.00,2014-01-29 17:55:00,
2014-01-29 12:00:00,39.2,13.9,30.40,SSW,205,2.0,10.0,35,0.00,,SKC,0.00,VWS V15.00,2014-01-29 18:00:00,
2014-01-29 12:05:00,39.7,14.3,30.40,SE,141,4.0,10.0,35,0.00,,SKC,0.00,VWS V15.00,2014-01-29 18:05:00,
2014-01-29 12:10:00,39.5,14.8,30.39,South,173,6.0,10.0,36,0.00,,SKC,0.00,VWS V15.00,2014-01-29 18:10:00,
2014-01-29 12:15:00,39.5,14.8,30.38,South,171,4.0,10.0,36,0.00,,SKC,0.00,VWS V15.00,2014-01-29 18:15:00,
2014-01-29 12:20:00,39.9,15.1,30.38,SSW,200,4.0,10.0,36,0.00,,SKC,0.00,VWS V15.00,2014-01-29 18:20:00,
2014-01-29 12:25:00,40.2,15.4,30.37,SSE,157,5.0,10.0,36,0.00,,SKC,0.00,VWS V15.00,2014-01-29 18:25:00,
2014-01-29 12:30:00,40.4,14.9,30.37,SE,129,7.0,10.0,35,0.00,,SKC,0.00,VWS V15.00,2014-01-29 18:30:00,
2014-01-29 12:35:00,40.5,15.0,30.37,SSE,148,12.0,12.0,35,0.00,,SKC,0.00,VWS V15.00,2014-01-29 18:35:00,
2014-01-29 12:40:00,40.9,14.7,30.36,SE,139,7.0,12.0,34,0.00,,SKC,0.00,VWS V15.00,2014-01-29 18:40:00,
2014-01-29 12:45:00,41.1,14.9,30.35,SE,131,5.0,12.0,34,0.00,,SKC,0.00,VWS V15.00,2014-01-29 18:45:00,
2014-01-29 12:50:00,41.4,14.5,30.35,South,174,6.0,12.0,33,0.00,,SKC,0.00,VWS V15.00,2014-01-29 18:50:00,
2014-01-29 12:55:00,41.3,15.1,30.34,ESE,106,9.0,12.0,34,0.00,,SKC,0.00,VWS V15.00,2014-01-29 18:55:00,
2014-01-29 13:00:00,41.3,14.4,30.33,ESE,103,6.0,12.0,33,0.00,,SKC,0.00,VWS V15.00,2014-01-29 19:00:00,
2014-01-29 13:05:00,41.6,14.6,30.33,SE,142,9.0,13.0,33,0.00,,SKC,0.00,VWS V15.00,2014-01-29 19:05:00,
2014-01-29 13:10:00,41.9,15.6,30.32,SSE,167,10.0,13.0,34,0.00,,SKC,0.00,VWS V15.00,2014-01-29 19:10:00,
2014-01-29 13:15:00,42.4,15.4,30.31,ESE,103,4.0,13.0,33,0.00,,SKC,0.00,VWS V15.00,2014-01-29 19:15:00,
2014-01-29 13:20:00,43.0,15.2,30.31,SSW,203,7.0,13.0,32,0.00,,SKC,0.00,VWS V15.00,2014-01-29 19:20:00,
2014-01-29 13:25:00,43.3,15.4,30.30,SSE,150,7.0,13.0,32,0.00,,SKC,0.00,VWS V15.00,2014-01-29 19:25:00,
2014-01-29 13:30:00,43.3,14.7,30.30,SSW,193,8.0,13.0,31,0.00,,SKC,0.00,VWS V15.00,2014-01-29 19:30:00,
2014-01-29 13:35:00,43.2,14.6,30.29,South,176,6.0,9.0,31,0.00,,SKC,0.00,VWS V15.00,2014-01-29 19:35:00,
2014-01-29 13:40:00,43.4,14.1,30.29,South,182,11.0,14.0,30,0.00,,SKC,0.00,VWS V15.00,2014-01-29 19:40:00,
2014-01-29 13:45:00,43.5,14.9,30.29,SW,233,7.0,14.0,31,0.00,,SKC,0.00,VWS V15.00,2014-01-29 19:45:00,
2014-01-29 13:50:00,44.1,15.4,30.28,South,191,5.0,14.0,31,0.00,,SKC,0.00,VWS V15.00,2014-01-29 19:50:00,
2014-01-29 13:55:00,44.1,14.7,30.28,SE,134,4.0,14.0,30,0.00,,SKC,0.00,VWS V15.00,2014-01-29 19:55:00,
2014-01-29 14:00:00,44.1,14.7,30.28,SE,131,5.0,14.0,30,0.00,,SKC,0.00,VWS V15.00,2014-01-29 20:00:00,
2014-01-29 14:05:00,44.5,15.0,30.27,SSW,213,6.0,10.0,30,0.00,,SKC,0.00,VWS V15.00,2014-01-29 20:05:00,
2014-01-29 14:10:00,44.5,15.0,30.27,SSE,167,6.0,13.0,30,0.00,,SKC,0.00,VWS V15.00,2014-01-29 20:10:00,
2014-01-29 14:15:00,44.7,15.2,30.27,SE,139,6.0,13.0,30,0.00,,SKC,0.00,VWS V15.00,2014-01-29 20:15:00,
2014-01-29 14:20:00,44.5,15.0,30.26,SSE,164,8.0,13.0,30,0.00,,SKC,0.00,VWS V15.00,2014-01-29 20:20:00,
2014-01-29 14:25:00,44.5,15.0,30.26,SSE,148,7.0,13.0,30,0.00,,SKC,0.00,VWS V15.00,2014-01-29 20:25:00,
2014-01-29 14:30:00,44.6,14.3,30.26,SSE,154,2.0,13.0,29,0.00,,SKC,0.00,VWS V15.00,2014-01-29 20:30:00,
2014-01-29 14:35:00,45.6,16.7,30.26,SSW,200,9.0,10.0,31,0.00,,SKC,0.00,VWS V15.00,2014-01-29 20:35:00,
2014-01-29 14:40:00,45.7,16.1,30.26,ESE,120,6.0,13.0,30,0.00,,SKC,0.00,VWS V15.00,2014-01-29 20:40:00,
2014-01-29 14:45:00,45.8,16.1,30.25,SSE,151,8.0,13.0,30,0.00,,SKC,0.00,VWS V15.00,2014-01-29 20:45:00,
2014-01-29 14:50:00,46.3,15.8,30.25,SSE,156,6.0,13.0,29,0.00,,SKC,0.00,VWS V15.00,2014-01-29 20:50:00,
2014-01-29 14:55:00,46.2,15.7,30.25,SSE,167,8.0,14.0,29,0.00,,SKC,0.00,VWS V15.00,2014-01-29 20:55:00,
2014-01-29 15:00:00,46.1,15.6,30.24,SSE,167,9.0,15.0,29,0.00,,SKC,0.00,VWS V15.00,2014-01-29 21:00:00,
2014-01-29 15:05:00,46.4,15.9,30.24,SSE,150,6.0,10.0,29,0.00,,SKC,0.00,VWS V15.00,2014-01-29 21:05:00,
2014-01-29 15:10:00,47.1,16.5,30.24,SE,126,6.0,10.0,29,0.00,,SKC,0.00,VWS V15.00,2014-01-29 21:10:00,
2014-01-29 15:15:00,46.7,15.3,30.24,SE,131,9.0,14.0,28,0.00,,SKC,0.00,VWS V15.00,2014-01-29 21:15:00,
2014-01-29 15:20:00,45.9,15.4,30.24,SSE,151,7.0,14.0,29,0.00,,SKC,0.00,VWS V15.00,2014-01-29 21:20:00,
2014-01-29 15:25:00,45.5,15.1,30.24,SSE,160,5.0,14.0,29,0.00,,SKC,0.00,VWS V15.00,2014-01-29 21:25:00,
2014-01-29 15:30:00,45.4,15.8,30.24,East,86,8.0,14.0,30,0.00,,SKC,0.00,VWS V15.00,2014-01-29 21:30:00,
2014-01-29 15:35:00,45.5,15.9,30.24,SSE,157,5.0,8.0,30,0.00,,SKC,0.00,VWS V15.00,2014-01-29 21:35:00,
2014-01-29 15:40:00,46.2,16.5,30.24,SSE,157,5.0,8.0,30,0.00,,SKC,0.00,VWS V15.00,2014-01-29 21:40:00,
2014-01-29 15:45:00,46.7,16.9,30.24,SE,144,5.0,12.0,30,0.00,,SKC,0.00,VWS V15.00,2014-01-29 21:45:00,
2014-01-29 15:50:00,46.5,16.8,30.23,ESE,117,6.0,12.0,30,0.00,,SKC,0.00,VWS V15.00,2014-01-29 21:50:00,
2014-01-29 15:55:00,46.3,16.6,30.23,SE,124,4.0,12.0,30,0.00,,SKC,0.00,VWS V15.00,2014-01-29 21:55:00,
2014-01-29 16:00:00,46.3,16.6,30.24,SE,129,5.0,12.0,30,0.00,,SKC,0.00,VWS V15.00,2014-01-29 22:00:00,
2014-01-29 16:05:00,46.9,16.3,30.23,ESE,115,6.0,7.0,29,0.00,,SKC,0.00,VWS V15.00,2014-01-29 22:05:00,
2014-01-29 16:10:00,46.7,16.9,30.24,SE,127,6.0,10.0,30,0.00,,SKC,0.00,VWS V15.00,2014-01-29 22:10:00,
2014-01-29 16:15:00,46.7,16.9,30.24,SE,124,4.0,12.0,30,0.00,,SKC,0.00,VWS V15.00,2014-01-29 22:15:00,
2014-01-29 16:20:00,47.0,16.4,30.24,SSE,147,5.0,12.0,29,0.00,,SKC,0.00,VWS V15.00,2014-01-29 22:20:00,
2014-01-29 16:25:00,46.5,16.0,30.24,South,178,4.0,12.0,29,0.00,,SKC,0.00,VWS V15.00,2014-01-29 22:25:00,
2014-01-29 16:30:00,46.8,17.0,30.23,SSE,151,4.0,12.0,30,0.00,,SKC,0.00,VWS V15.00,2014-01-29 22:30:00,
2014-01-29 16:35:00,47.2,17.4,30.24,SSE,147,6.0,7.0,30,0.00,,SKC,0.00,VWS V15.00,2014-01-29 22:35:00,
2014-01-29 16:40:00,47.5,16.8,30.24,SE,146,3.0,9.0,29,0.00,,SKC,0.00,VWS V15.00,2014-01-29 22:40:00,
2014-01-29 16:45:00,47.6,16.9,30.24,South,178,4.0,9.0,29,0.00,,SKC,0.00,VWS V15.00,2014-01-29 22:45:00,
2014-01-29 16:50:00,47.5,16.8,30.24,SSE,149,6.0,9.0,29,0.00,,SKC,0.00,VWS V15.00,2014-01-29 22:50:00,
2014-01-29 16:55:00,46.9,16.3,30.24,SSE,162,4.0,10.0,29,0.00,,SKC,0.00,VWS V15.00,2014-01-29 22:55:00,
2014-01-29 17:00:00,46.7,16.9,30.24,SSE,158,5.0,10.0,30,0.00,,SKC,0.00,VWS V15.00,2014-01-29 23:00:00,
2014-01-29 17:05:00,46.9,15.5,30.23,SSE,150,5.0,7.0,28,0.00,,SKC,0.00,VWS V15.00,2014-01-29 23:05:00,
2014-01-29 17:10:00,47.5,16.0,30.23,South,172,3.0,9.0,28,0.00,,SKC,0.00,VWS V15.00,2014-01-29 23:10:00,
2014-01-29 17:15:00,47.5,15.2,30.23,SE,138,6.0,11.0,27,0.00,,SKC,0.00,VWS V15.00,2014-01-29 23:15:00,
2014-01-29 17:20:00,46.9,14.7,30.23,SSE,163,3.0,11.0,27,0.00,,SKC,0.00,VWS V15.00,2014-01-29 23:20:00,
2014-01-29 17:25:00,46.1,14.8,30.23,SE,131,4.0,11.0,28,0.00,,SKC,0.00,VWS V15.00,2014-01-29 23:25:00,
2014-01-29 17:30:00,45.4,15.0,30.22,SE,146,5.0,11.0,29,0.00,,SKC,0.00,VWS V15.00,2014-01-29 23:30:00,
2014-01-29 17:35:00,45.4,15.0,30.22,SSE,149,3.0,8.0,29,0.00,,SKC,0.00,VWS V15.00,2014-01-29 23:35:00,
2014-01-29 17:40:00,45.1,15.5,30.22,SSE,165,6.0,8.0,30,0.00,,SKC,0.00,VWS V15.00,2014-01-29 23:40:00,
2014-01-29 17:45:00,44.9,15.4,30.22,SE,140,5.0,9.0,30,0.00,,SKC,0.00,VWS V15.00,2014-01-29 23:45:00,
2014-01-29 17:50:00,44.9,16.1,30.22,SE,129,5.0,9.0,31,0.00,,SKC,0.00,VWS V15.00,2014-01-29 23:50:00,
2014-01-29 17:55:00,44.9,16.1,30.22,SSE,149,4.0,9.0,31,0.00,,SKC,0.00,VWS V15.00,2014-01-29 23:55:00,
2014-01-29 18:00:00,44.7,15.9,30.21,SE,127,3.0,9.0,31,0.00,,SKC,0.00,VWS V15.00,2014-01-30 00:00:00,
2014-01-29 18:05:00,44.1,16.1,30.21,SSE,149,4.0,7.0,32,0.00,,SKC,0.00,VWS V15.00,2014-01-30 00:05:00,
2014-01-29 18:10:00,43.5,16.3,30.20,SSE,153,5.0,7.0,33,0.00,,SKC,0.00,VWS V15.00,2014-01-30 00:10:00,
2014-01-29 18:15:00,43.0,16.6,30.20,SSE,158,5.0,8.0,34,0.00,,SKC,0.00,VWS V15.00,2014-01-30 00:15:00,
2014-01-29 18:20:00,42.6,16.2,30.20,SE,141,6.0,8.0,34,0.00,,SKC,0.00,VWS V15.00,2014-01-30 00:20:00,
2014-01-29 18:25:00,42.3,16.6,30.20,SE,132,5.0,8.0,35,0.00,,SKC,0.00,VWS V15.00,2014-01-30 00:25:00,
2014-01-29 18:30:00,42.0,17.0,30.21,SE,146,4.0,8.0,36,0.00,,SKC,0.00,VWS V15.00,2014-01-30 00:30:00,
2014-01-29 18:35:00,41.6,16.6,30.20,SE,129,4.0,6.0,36,0.00,,SKC,0.00,VWS V15.00,2014-01-30 00:35:00,
2014-01-29 18:40:00,41.2,16.9,30.20,SSE,149,5.0,7.0,37,0.00,,SKC,0.00,VWS V15.00,2014-01-30 00:40:00,
2014-01-29 18:45:00,40.8,17.2,30.20,SE,127,5.0,7.0,38,0.00,,SKC,0.00,VWS V15.00,2014-01-30 00:45:00,
2014-01-29 18:50:00,40.7,17.1,30.20,ESE,113,7.0,7.0,38,0.00,,SKC,0.00,VWS V15.00,2014-01-30 00:50:00,
2014-01-29 18:55:00,40.5,16.9,30.20,SE,144,2.0,8.0,38,0.00,,SKC,0.00,VWS V15.00,2014-01-30 00:55:00,
2014-01-29 19:00:00,40.3,16.7,30.20,ESE,102,6.0,8.0,38,0.00,,SKC,0.00,VWS V15.00,2014-01-30 01:00:00,
2014-01-29 19:05:00,40.2,17.2,30.20,South,171,3.0,11.0,39,0.00,,SKC,0.00,VWS V15.00,2014-01-30 01:05:00,
2014-01-29 19:10:00,40.0,17.1,30.20,SSE,165,5.0,11.0,39,0.00,,SKC,0.00,VWS V15.00,2014-01-30 01:10:00,
2014-01-29 19:15:00,39.9,17.0,30.20,South,186,5.0,11.0,39,0.00,,SKC,0.00,VWS V15.00,2014-01-30 01:15:00,
2014-01-29 19:20:00,39.8,17.5,30.20,SSE,163,4.0,11.0,40,0.00,,SKC,0.00,VWS V15.00,2014-01-30 01:20:00,
2014-01-29 19:25:00,39.6,17.3,30.20,SSE,160,7.0,11.0,40,0.00,,SKC,0.00,VWS V15.00,2014-01-30 01:25:00,
2014-01-29 19:30:00,39.5,17.2,30.20,SSW,200,5.0,11.0,40,0.00,,SKC,0.00,VWS V15.00,2014-01-30 01:30:00,
2014-01-29 19:35:00,39.3,17.6,30.20,South,188,5.0,13.0,41,0.00,,SKC,0.00,VWS V15.00,2014-01-30 01:35:00,
2014-01-29 19:40:00,39.1,17.4,30.20,South,184,5.0,13.0,41,0.00,,SKC,0.00,VWS V15.00,2014-01-30 01:40:00,
2014-01-29 19:45:00,38.9,17.2,30.21,SSE,157,4.0,13.0,41,0.00,,SKC,0.00,VWS V15.00,2014-01-30 01:45:00,
2014-01-29 19:50:00,38.6,17.5,30.21,South,188,7.0,13.0,42,0.00,,SKC,0.00,VWS V15.00,2014-01-30 01:50:00,
2014-01-29 19:55:00,38.5,17.4,30.21,SSE,162,4.0,13.0,42,0.00,,SKC,0.00,VWS V15.00,2014-01-30 01:55:00,
2014-01-29 20:00:00,38.1,17.0,30.21,South,170,4.0,13.0,42,0.00,,SKC,0.00,VWS V15.00,2014-01-30 02:00:00,
2014-01-29 20:05:00,37.9,17.4,30.21,SSE,168,5.0,8.0,43,0.00,,SKC,0.00,VWS V15.00,2014-01-30 02:05:00,
2014-01-29 20:10:00,37.6,17.1,30.21,SE,134,3.0,8.0,43,0.00,,SKC,0.00,VWS V15.00,2014-01-30 02:10:00,
2014-01-29 20:15:00,37.3,17.4,30.21,SSW,201,5.0,8.0,44,0.00,,SKC,0.00,VWS V15.00,2014-01-30 02:15:00,
2014-01-29 20:20:00,37.1,17.2,30.21,SSE,165,4.0,8.0,44,0.00,,SKC,0.00,VWS V15.00,2014-01-30 02:20:00,
2014-01-29 20:25:00,36.9,17.0,30.21,SSE,157,6.0,9.0,44,0.00,,SKC,0.00,VWS V15.00,2014-01-30 02:25:00,
2014-01-29 20:30:00,36.6,17.3,30.21,SSE,155,5.0,9.0,45,0.00,,SKC,0.00,VWS V15.00,2014-01-30 02:30:00,
2014-01-29 20:35:00,36.4,17.1,30.21,SSE,150,5.0,9.0,45,0.00,,SKC,0.00,VWS V15.00,2014-01-30 02:35:00,
2014-01-29 20:40:00,36.2,16.9,30.21,SSE,164,4.0,9.0,45,0.00,,SKC,0.00,VWS V15.00,2014-01-30 02:40:00,
2014-01-29 20:45:00,36.1,16.8,30.21,SSE,165,4.0,9.0,45,0.00,,SKC,0.00,VWS V15.00,2014-01-30 02:45:00,
2014-01-29 20:50:00,35.9,17.1,30.22,SSE,162,5.0,9.0,46,0.00,,SKC,0.00,VWS V15.00,2014-01-30 02:50:00,
2014-01-29 20:55:00,35.7,17.0,30.21,SSE,167,4.0,9.0,46,0.00,,SKC,0.00,VWS V15.00,2014-01-30 02:55:00,
2014-01-29 21:00:00,35.6,16.9,30.21,South,176,5.0,9.0,46,0.00,,SKC,0.00,VWS V15.00,2014-01-30 03:00:00,
2014-01-29 21:05:00,35.5,16.8,30.21,SSE,150,4.0,8.0,46,0.00,,SKC,0.00,VWS V15.00,2014-01-30 03:05:00,
2014-01-29 21:10:00,35.3,16.6,30.21,SSE,160,4.0,9.0,46,0.00,,SKC,0.00,VWS V15.00,2014-01-30 03:10:00,
2014-01-29 21:15:00,35.2,16.5,30.21,South,188,5.0,9.0,46,0.00,,SKC,0.00,VWS V15.00,2014-01-30 03:15:00,
2014-01-29 21:20:00,35.2,16.5,30.21,South,186,5.0,9.0,46,0.00,,SKC,0.00,VWS V15.00,2014-01-30 03:20:00,
2014-01-29 21:25:00,35.0,16.8,30.21,SSE,166,4.0,9.0,47,0.00,,SKC,0.00,VWS V15.00,2014-01-30 03:25:00,
2014-01-29 21:30:00,34.9,16.7,30.21,SSE,161,4.0,9.0,47,0.00,,SKC,0.00,VWS V15.00,2014-01-30 03:30:00,
2014-01-29 21:35:00,34.8,16.6,30.21,SSE,150,4.0,7.0,47,0.00,,SKC,0.00,VWS V15.00,2014-01-30 03:35:00,
2014-01-29 21:40:00,34.7,16.5,30.21,South,185,5.0,8.0,47,0.00,,SKC,0.00,VWS V15.00,2014-01-30 03:40:00,
2014-01-29 21:45:00,34.6,16.5,30.20,South,174,6.0,9.0,47,0.00,,SKC,0.00,VWS V15.00,2014-01-30 03:45:00,
2014-01-29 21:50:00,34.6,16.5,30.20,SSE,165,4.0,9.0,47,0.00,,SKC,0.00,VWS V15.00,2014-01-30 03:50:00,
2014-01-29 21:55:00,34.5,16.4,30.20,SSE,168,6.0,9.0,47,0.00,,SKC,0.00,VWS V15.00,2014-01-30 03:55:00,
2014-01-29 22:00:00,34.4,16.3,30.20,SSE,158,7.0,10.0,47,0.00,,SKC,0.00,VWS V15.00,2014-01-30 04:00:00,
2014-01-29 22:05:00,34.3,15.7,30.20,SSE,158,4.0,9.0,46,0.00,,SKC,0.00,VWS V15.00,2014-01-30 04:05:00,
2014-01-29 22:10:00,34.3,15.7,30.20,SE,140,4.0,10.0,46,0.00,,SKC,0.00,VWS V15.00,2014-01-30 04:10:00,
2014-01-29 22:15:00,34.3,15.2,30.20,SE,146,4.0,12.0,45,0.00,,SKC,0.00,VWS V15.00,2014-01-30 04:15:00,
2014-01-29 22:20:00,34.3,15.2,30.20,South,169,6.0,12.0,45,0.00,,SKC,0.00,VWS V15.00,2014-01-30 04:20:00,
2014-01-29 22:25:00,34.4,15.3,30.20,South,186,4.0,12.0,45,0.00,,SKC,0.00,VWS V15.00,2014-01-30 04:25:00,
2014-01-29 22:30:00,34.4,14.8,30.20,SSW,193,5.0,12.0,44,0.00,,SKC,0.00,VWS V15.00,2014-01-30 04:30:00,
2014-01-29 22:35:00,34.3,14.7,30.19,South,188,6.0,10.0,44,0.00,,SKC,0.00,VWS V15.00,2014-01-30 04:35:00,
2014-01-29 22:40:00,34.4,14.8,30.19,SSE,160,4.0,12.0,44,0.00,,SKC,0.00,VWS V15.00,2014-01-30 04:40:00,
2014-01-29 22:45:00,34.3,14.7,30.18,South,169,5.0,12.0,44,0.00,,SKC,0.00,VWS V15.00,2014-01-30 04:45:00,
2014-01-29 22:50:00,34.2,14.6,30.18,SSE,150,5.0,12.0,44,0.00,,SKC,0.00,VWS V15.00,2014-01-30 04:50:00,
2014-01-29 22:55:00,34.1,14.5,30.19,SE,139,3.0,12.0,44,0.00,,SKC,0.00,VWS V15.00,2014-01-30 04:55:00,
2014-01-29 23:00:00,33.9,14.3,30.18,South,184,5.0,12.0,44,0.00,,SKC,0.00,VWS V15.00,2014-01-30 05:00:00,
2014-01-29 23:01:00,33.9,14.3,30.18,SSW,192,6.0,12.0,44,0.00,,SKC,0.00,VWS V15.00,2014-01-30 05:01:00,
2014-01-29 23:06:00,33.7,14.1,30.18,SSE,161,5.0,10.0,44,0.00,,SKC,0.00,VWS V15.00,2014-01-30 05:06:00,
2014-01-29 23:11:00,33.7,14.1,30.17,SSE,159,7.0,10.0,44,0.00,,SKC,0.00,VWS V15.00,2014-01-30 05:11:00,
2014-01-29 23:16:00,33.6,14.0,30.17,SSE,167,8.0,10.0,44,0.00,,SKC,0.00,VWS V15.00,2014-01-30 05:16:00,
2014-01-29 23:21:00,33.5,13.9,30.17,SSE,152,4.0,10.0,44,0.00,,SKC,0.00,VWS V15.00,2014-01-30 05:21:00,
2014-01-29 23:26:00,33.5,13.9,30.17,South,188,6.0,10.0,44,0.00,,SKC,0.00,VWS V15.00,2014-01-30 05:26:00,
2014-01-29 23:30:00,33.1,13.1,30.16,SSE,161,5.0,12.0,43,0.00,,SKC,0.00,VWS V15.00,2014-01-30 05:30:00,
2014-01-29 23:31:00,33.5,13.9,30.17,South,178,5.0,10.0,44,0.00,,SKC,0.00,VWS V15.00,2014-01-30 05:31:00,
2014-01-29 23:36:00,33.6,14.0,30.17,SSE,157,8.0,9.0,44,0.00,,SKC,0.00,VWS V15.00,2014-01-30 05:36:00,
2014-01-29 23:41:00,33.6,13.5,30.17,South,190,9.0,11.0,43,0.00,,SKC,0.00,VWS V15.00,2014-01-30 05:41:00,
2014-01-29 23:46:00,33.6,13.5,30.17,SSE,152,5.0,11.0,43,0.00,,SKC,0.00,VWS V15.00,2014-01-30 05:46:00,
2014-01-29 23:51:00,33.6,13.5,30.17,SSW,209,6.0,11.0,43,0.00,,SKC,0.00,VWS V15.00,2014-01-30 05:51:00,
2014-01-29 23:56:00,33.6,13.5,30.17,SSE,158,6.0,11.0,43,0.00,,SKC,0.00,VWS V15.00,2014-01-30 05:56:00,